KFBG/FBG METAR and TAF weather

Enter ICAO airport designator
Station Type Date Time Source
KFBG METAR 2021/02/25 00:56 UTC NOAA

KFBG 250056Z AUTO 00000KT 10SM CLR 16/01 A3000 RMK AO2 SLP162 T01600009 $


Station Type Date Time Source
KFBG Decoded METAR 2021/02/25 00:56 UTC NOAA

Fort Bragg / Simmons Army Airfield, NC, United States (KFBG) 35-08N 078-56W 74M
Feb 24, 2021 - 07:56 PM EST / 2021.02.25 0056 UTC
Wind: Calm:0
Visibility: 10 mile(s):0
Sky conditions: clear
Temperature: 60.8 F (16.0 C)
Dew Point: 33.6 F (0.9 C)
Relative Humidity: 35%
Pressure (altimeter): 30 in. Hg (1015 hPa)
ob: KFBG 250056Z AUTO 00000KT 10SM CLR 16/01 A3000 RMK AO2 SLP162 T01600009
cycle: 1

Station Type Date Time Source
KFBG TAF 2021/02/24 18:04 UTC NOAA

TAF KFBG 241800Z 2418/2524 18010G15KT 9999 FEW230 QNH3006INS
TEMPO 2418/2421 21015G20KT
BECMG 2423/2424 21006KT 9999 SKC QNH3006INS
BECMG 2511/2512 VRB06KT 9999 FEW060 QNH3013INS TX22/2420Z TN07/2510Z

Example: see airport list